sensor_id;sensor_type;location;lat;lon;timestamp;temperature;humidity
12335;DHT22;6233;51.560;9.986;2022-10-17T00:01:19;15.60;99.90
12335;DHT22;6233;51.560;9.986;2022-10-17T00:04:21;15.50;99.90
12335;DHT22;6233;51.560;9.986;2022-10-17T00:07:23;15.70;99.90
12335;DHT22;6233;51.560;9.986;2022-10-17T00:10:25;15.60;99.90
12335;DHT22;6233;51.560;9.986;2022-10-17T00:13:27;15.60;99.90
12335;DHT22;6233;51.560;9.986;2022-10-17T00:16:34;15.60;99.90
12335;DHT22;6233;51.560;9.986;2022-10-17T00:19:37;15.60;99.90
12335;DHT22;6233;51.560;9.986;2022-10-17T00:22:41;15.70;99.90
12335;DHT22;6233;51.560;9.986;2022-10-17T00:25:42;15.60;99.90
12335;DHT22;6233;51.560;9.986;2022-10-17T00:28:49;15.50;99.90
12335;DHT22;6233;51.560;9.986;2022-10-17T00:31:54;15.60;99.90
12335;DHT22;6233;51.560;9.986;2022-10-17T00:34:57;15.50;99.90
12335;DHT22;6233;51.560;9.986;2022-10-17T00:37:58;15.60;99.90
12335;DHT22;6233;51.560;9.986;2022-10-17T00:41:00;15.50;99.90
12335;DHT22;6233;51.560;9.986;2022-10-17T00:44:56;15.40;99.90
12335;DHT22;6233;51.560;9.986;2022-10-17T00:47:29;15.40;99.90
12335;DHT22;6233;51.560;9.986;2022-10-17T00:50:31;15.40;99.90
12335;DHT22;6233;51.560;9.986;2022-10-17T00:53:34;15.50;99.90
12335;DHT22;6233;51.560;9.986;2022-10-17T00:56:37;15.40;99.90
12335;DHT22;6233;51.560;9.986;2022-10-17T00:59:41;15.50;99.90
12335;DHT22;6233;51.560;9.986;2022-10-17T01:02:44;15.50;99.90
12335;DHT22;6233;51.560;9.986;2022-10-17T01:05:46;15.50;99.90
12335;DHT22;6233;51.560;9.986;2022-10-17T01:08:48;15.50;99.90
12335;DHT22;6233;51.560;9.986;2022-10-17T01:12:27;15.40;99.90
12335;DHT22;6233;51.560;9.986;2022-10-17T01:15:33;15.50;99.90
12335;DHT22;6233;51.560;9.986;2022-10-17T01:18:47;15.50;99.90
12335;DHT22;6233;51.560;9.986;2022-10-17T01:22:15;15.50;99.90
12335;DHT22;6233;51.560;9.986;2022-10-17T01:25:44;15.50;99.90
12335;DHT22;6233;51.560;9.986;2022-10-17T01:29:17;15.50;99.90
12335;DHT22;6233;51.560;9.986;2022-10-17T01:32:32;15.50;99.90
12335;DHT22;6233;51.560;9.986;2022-10-17T01:35:58;15.50;99.90
12335;DHT22;6233;51.560;9.986;2022-10-17T01:43:12;15.40;99.90
12335;DHT22;6233;51.560;9.986;2022-10-17T01:46:48;15.40;99.90
12335;DHT22;6233;51.560;9.986;2022-10-17T01:49:53;15.40;99.90
12335;DHT22;6233;51.560;9.986;2022-10-17T01:53:00;15.40;99.90
12335;DHT22;6233;51.560;9.986;2022-10-17T01:56:05;15.40;99.90
12335;DHT22;6233;51.560;9.986;2022-10-17T02:02:44;15.40;99.90
12335;DHT22;6233;51.560;9.986;2022-10-17T02:05:47;15.40;99.90
12335;DHT22;6233;51.560;9.986;2022-10-17T02:08:49;15.40;99.90
12335;DHT22;6233;51.560;9.986;2022-10-17T02:18:43;15.40;99.90
12335;DHT22;6233;51.560;9.986;2022-10-17T02:28:20;15.40;99.90
12335;DHT22;6233;51.560;9.986;2022-10-17T02:31:26;15.40;99.90
12335;DHT22;6233;51.560;9.986;2022-10-17T02:34:35;15.30;99.90
12335;DHT22;6233;51.560;9.986;2022-10-17T02:37:39;15.50;99.90
12335;DHT22;6233;51.560;9.986;2022-10-17T02:40:43;15.50;99.90
12335;DHT22;6233;51.560;9.986;2022-10-17T02:43:48;15.40;99.90
12335;DHT22;6233;51.560;9.986;2022-10-17T02:47:00;15.40;99.90
12335;DHT22;6233;51.560;9.986;2022-10-17T02:50:05;15.30;99.90
12335;DHT22;6233;51.560;9.986;2022-10-17T02:53:14;15.40;99.90
12335;DHT22;6233;51.560;9.986;2022-10-17T02:56:19;15.40;99.90
12335;DHT22;6233;51.560;9.986;2022-10-17T02:59:24;15.50;99.90
12335;DHT22;6233;51.560;9.986;2022-10-17T03:02:26;15.40;99.90
12335;DHT22;6233;51.560;9.986;2022-10-17T03:05:29;15.40;99.90
12335;DHT22;6233;51.560;9.986;2022-10-17T03:08:30;15.40;99.90
12335;DHT22;6233;51.560;9.986;2022-10-17T03:11:33;15.50;99.90
12335;DHT22;6233;51.560;9.986;2022-10-17T03:14:34;15.50;99.90
12335;DHT22;6233;51.560;9.986;2022-10-17T03:17:36;15.40;99.90
12335;DHT22;6233;51.560;9.986;2022-10-17T03:20:38;15.40;99.90
12335;DHT22;6233;51.560;9.986;2022-10-17T03:23:50;15.40;99.90
12335;DHT22;6233;51.560;9.986;2022-10-17T03:26:51;15.40;99.90
12335;DHT22;6233;51.560;9.986;2022-10-17T03:29:53;15.30;99.90
12335;DHT22;6233;51.560;9.986;2022-10-17T03:32:56;15.30;99.90
12335;DHT22;6233;51.560;9.986;2022-10-17T03:35:58;15.50;99.90
12335;DHT22;6233;51.560;9.986;2022-10-17T03:39:00;15.50;99.90
12335;DHT22;6233;51.560;9.986;2022-10-17T03:42:02;15.30;99.90
12335;DHT22;6233;51.560;9.986;2022-10-17T03:45:04;15.40;99.90
12335;DHT22;6233;51.560;9.986;2022-10-17T03:48:05;15.40;99.90
12335;DHT22;6233;51.560;9.986;2022-10-17T03:51:08;15.50;99.90
12335;DHT22;6233;51.560;9.986;2022-10-17T03:54:10;15.30;99.90
12335;DHT22;6233;51.560;9.986;2022-10-17T03:57:11;15.30;99.90
12335;DHT22;6233;51.560;9.986;2022-10-17T04:00:13;15.30;99.90
12335;DHT22;6233;51.560;9.986;2022-10-17T04:03:15;15.50;99.90
12335;DHT22;6233;51.560;9.986;2022-10-17T04:06:18;15.50;99.90
12335;DHT22;6233;51.560;9.986;2022-10-17T04:09:20;15.50;99.90
12335;DHT22;6233;51.560;9.986;2022-10-17T04:12:22;15.50;99.90
12335;DHT22;6233;51.560;9.986;2022-10-17T04:15:23;15.50;99.90
12335;DHT22;6233;51.560;9.986;2022-10-17T04:18:25;15.50;99.90
12335;DHT22;6233;51.560;9.986;2022-10-17T04:21:28;15.40;99.90
12335;DHT22;6233;51.560;9.986;2022-10-17T04:24:29;15.50;99.90
12335;DHT22;6233;51.560;9.986;2022-10-17T04:27:31;15.30;99.90
12335;DHT22;6233;51.560;9.986;2022-10-17T04:30:33;15.50;99.90
12335;DHT22;6233;51.560;9.986;2022-10-17T04:33:34;15.60;99.90
12335;DHT22;6233;51.560;9.986;2022-10-17T04:36:36;15.40;99.90
12335;DHT22;6233;51.560;9.986;2022-10-17T04:39:38;15.70;99.90
12335;DHT22;6233;51.560;9.986;2022-10-17T04:42:39;15.80;99.90
12335;DHT22;6233;51.560;9.986;2022-10-17T04:45:41;15.60;99.90
12335;DHT22;6233;51.560;9.986;2022-10-17T04:48:42;15.90;99.90
12335;DHT22;6233;51.560;9.986;2022-10-17T04:51:44;15.60;99.90
12335;DHT22;6233;51.560;9.986;2022-10-17T04:54:46;15.80;99.90
12335;DHT22;6233;51.560;9.986;2022-10-17T04:57:47;15.60;99.90
12335;DHT22;6233;51.560;9.986;2022-10-17T05:00:49;15.80;99.90
12335;DHT22;6233;51.560;9.986;2022-10-17T05:03:52;15.80;99.90
12335;DHT22;6233;51.560;9.986;2022-10-17T05:06:53;15.90;99.90
12335;DHT22;6233;51.560;9.986;2022-10-17T05:09:55;15.60;99.90
12335;DHT22;6233;51.560;9.986;2022-10-17T05:12:59;15.70;99.90
12335;DHT22;6233;51.560;9.986;2022-10-17T05:16:00;15.70;99.90
12335;DHT22;6233;51.560;9.986;2022-10-17T05:19:02;15.70;99.90
12335;DHT22;6233;51.560;9.986;2022-10-17T05:22:04;15.60;99.90
12335;DHT22;6233;51.560;9.986;2022-10-17T05:25:06;15.60;99.90
12335;DHT22;6233;51.560;9.986;2022-10-17T05:28:08;15.60;99.90
12335;DHT22;6233;51.560;9.986;2022-10-17T05:31:13;15.60;99.90
12335;DHT22;6233;51.560;9.986;2022-10-17T05:34:14;15.80;99.90
12335;DHT22;6233;51.560;9.986;2022-10-17T05:37:16;15.60;99.90
12335;DHT22;6233;51.560;9.986;2022-10-17T05:40:18;15.60;99.90
12335;DHT22;6233;51.560;9.986;2022-10-17T05:43:20;15.60;99.90
12335;DHT22;6233;51.560;9.986;2022-10-17T05:46:22;15.60;99.90
12335;DHT22;6233;51.560;9.986;2022-10-17T05:49:25;15.70;99.90
12335;DHT22;6233;51.560;9.986;2022-10-17T05:52:45;15.70;99.90
12335;DHT22;6233;51.560;9.986;2022-10-17T05:55:55;15.70;99.90
12335;DHT22;6233;51.560;9.986;2022-10-17T05:58:57;15.70;99.90
12335;DHT22;6233;51.560;9.986;2022-10-17T06:02:01;15.70;99.90
12335;DHT22;6233;51.560;9.986;2022-10-17T06:05:03;15.80;99.90
12335;DHT22;6233;51.560;9.986;2022-10-17T06:08:05;15.80;99.90
12335;DHT22;6233;51.560;9.986;2022-10-17T06:11:07;15.90;99.90
12335;DHT22;6233;51.560;9.986;2022-10-17T06:14:12;15.90;99.90
12335;DHT22;6233;51.560;9.986;2022-10-17T06:17:13;15.90;99.90
12335;DHT22;6233;51.560;9.986;2022-10-17T06:20:17;16.00;99.90
12335;DHT22;6233;51.560;9.986;2022-10-17T06:23:18;16.10;99.90
12335;DHT22;6233;51.560;9.986;2022-10-17T06:26:20;16.10;99.90
12335;DHT22;6233;51.560;9.986;2022-10-17T06:29:22;16.10;99.90
12335;DHT22;6233;51.560;9.986;2022-10-17T06:32:24;16.20;99.90
12335;DHT22;6233;51.560;9.986;2022-10-17T06:35:25;16.20;99.90
12335;DHT22;6233;51.560;9.986;2022-10-17T06:38:27;16.30;99.90
12335;DHT22;6233;51.560;9.986;2022-10-17T06:41:28;16.30;99.90
12335;DHT22;6233;51.560;9.986;2022-10-17T06:44:30;16.60;99.90
12335;DHT22;6233;51.560;9.986;2022-10-17T06:47:32;16.40;99.90
12335;DHT22;6233;51.560;9.986;2022-10-17T06:50:34;16.50;99.90
12335;DHT22;6233;51.560;9.986;2022-10-17T06:53:37;16.70;99.90
12335;DHT22;6233;51.560;9.986;2022-10-17T06:56:39;16.70;99.90
12335;DHT22;6233;51.560;9.986;2022-10-17T06:59:41;16.80;99.90
12335;DHT22;6233;51.560;9.986;2022-10-17T07:02:43;16.90;99.90
12335;DHT22;6233;51.560;9.986;2022-10-17T07:05:51;17.20;99.90
12335;DHT22;6233;51.560;9.986;2022-10-17T07:08:59;17.00;99.90
12335;DHT22;6233;51.560;9.986;2022-10-17T07:12:03;17.10;99.90
12335;DHT22;6233;51.560;9.986;2022-10-17T07:15:08;17.10;99.90
12335;DHT22;6233;51.560;9.986;2022-10-17T07:18:10;17.20;99.90
12335;DHT22;6233;51.560;9.986;2022-10-17T07:21:12;17.50;99.90
12335;DHT22;6233;51.560;9.986;2022-10-17T07:24:13;17.60;99.90
12335;DHT22;6233;51.560;9.986;2022-10-17T07:27:21;17.80;99.90
12335;DHT22;6233;51.560;9.986;2022-10-17T07:30:26;18.00;99.90
12335;DHT22;6233;51.560;9.986;2022-10-17T07:33:27;18.20;99.90
12335;DHT22;6233;51.560;9.986;2022-10-17T07:36:29;18.40;99.90
12335;DHT22;6233;51.560;9.986;2022-10-17T07:39:31;18.60;99.90
12335;DHT22;6233;51.560;9.986;2022-10-17T07:42:35;18.70;99.90
12335;DHT22;6233;51.560;9.986;2022-10-17T07:45:37;19.00;99.90
12335;DHT22;6233;51.560;9.986;2022-10-17T07:48:42;19.30;99.90
12335;DHT22;6233;51.560;9.986;2022-10-17T07:51:43;19.70;99.90
12335;DHT22;6233;51.560;9.986;2022-10-17T07:54:50;19.90;99.90
12335;DHT22;6233;51.560;9.986;2022-10-17T07:57:51;20.10;99.90
12335;DHT22;6233;51.560;9.986;2022-10-17T08:00:53;20.30;99.90
12335;DHT22;6233;51.560;9.986;2022-10-17T08:03:55;20.40;99.90
12335;DHT22;6233;51.560;9.986;2022-10-17T08:06:57;20.30;99.90
12335;DHT22;6233;51.560;9.986;2022-10-17T08:10:20;20.40;99.90
12335;DHT22;6233;51.560;9.986;2022-10-17T08:13:22;20.40;99.90
12335;DHT22;6233;51.560;9.986;2022-10-17T08:16:25;20.30;99.90
12335;DHT22;6233;51.560;9.986;2022-10-17T08:19:26;20.30;99.90
12335;DHT22;6233;51.560;9.986;2022-10-17T08:22:28;20.20;99.90
12335;DHT22;6233;51.560;9.986;2022-10-17T08:25:30;20.10;99.90
12335;DHT22;6233;51.560;9.986;2022-10-17T08:28:34;20.00;99.90
12335;DHT22;6233;51.560;9.986;2022-10-17T08:31:38;19.90;99.90
12335;DHT22;6233;51.560;9.986;2022-10-17T08:34:48;19.90;99.90
12335;DHT22;6233;51.560;9.986;2022-10-17T08:37:50;20.00;99.90
12335;DHT22;6233;51.560;9.986;2022-10-17T08:40:51;20.10;99.90
12335;DHT22;6233;51.560;9.986;2022-10-17T08:44:13;20.10;99.90
12335;DHT22;6233;51.560;9.986;2022-10-17T08:47:24;20.30;99.90
12335;DHT22;6233;51.560;9.986;2022-10-17T08:53:41;20.60;99.90
12335;DHT22;6233;51.560;9.986;2022-10-17T08:56:48;20.60;99.90
12335;DHT22;6233;51.560;9.986;2022-10-17T08:59:52;20.70;99.90
12335;DHT22;6233;51.560;9.986;2022-10-17T09:06:20;20.90;99.90
12335;DHT22;6233;51.560;9.986;2022-10-17T09:09:49;20.80;99.90
12335;DHT22;6233;51.560;9.986;2022-10-17T09:19:30;20.70;99.90
12335;DHT22;6233;51.560;9.986;2022-10-17T09:26:13;20.90;99.90
12335;DHT22;6233;51.560;9.986;2022-10-17T09:29:22;21.00;99.90
12335;DHT22;6233;51.560;9.986;2022-10-17T09:32:24;21.10;99.90
12335;DHT22;6233;51.560;9.986;2022-10-17T09:35:27;21.20;99.90
12335;DHT22;6233;51.560;9.986;2022-10-17T09:38:42;21.20;99.90
12335;DHT22;6233;51.560;9.986;2022-10-17T09:41:53;21.10;99.90
12335;DHT22;6233;51.560;9.986;2022-10-17T09:48:49;21.40;99.90
12335;DHT22;6233;51.560;9.986;2022-10-17T09:51:42;21.60;99.90
12335;DHT22;6233;51.560;9.986;2022-10-17T09:54:48;21.70;99.90
12335;DHT22;6233;51.560;9.986;2022-10-17T09:57:56;22.00;99.90
12335;DHT22;6233;51.560;9.986;2022-10-17T10:01:17;22.00;99.90
12335;DHT22;6233;51.560;9.986;2022-10-17T10:04:24;22.10;99.90
12335;DHT22;6233;51.560;9.986;2022-10-17T10:07:38;22.10;99.90
12335;DHT22;6233;51.560;9.986;2022-10-17T10:10:39;22.00;99.90
12335;DHT22;6233;51.560;9.986;2022-10-17T10:13:46;22.00;99.90
12335;DHT22;6233;51.560;9.986;2022-10-17T10:16:50;22.00;99.90
12335;DHT22;6233;51.560;9.986;2022-10-17T10:19:52;22.00;99.90
12335;DHT22;6233;51.560;9.986;2022-10-17T10:23:13;22.10;99.90
12335;DHT22;6233;51.560;9.986;2022-10-17T10:26:23;22.10;99.90
12335;DHT22;6233;51.560;9.986;2022-10-17T10:29:39;22.20;99.90
12335;DHT22;6233;51.560;9.986;2022-10-17T10:32:45;22.40;99.90
12335;DHT22;6233;51.560;9.986;2022-10-17T10:35:58;22.40;99.90
12335;DHT22;6233;51.560;9.986;2022-10-17T10:39:21;22.40;99.90
12335;DHT22;6233;51.560;9.986;2022-10-17T10:42:28;22.30;99.90
12335;DHT22;6233;51.560;9.986;2022-10-17T10:48:55;22.40;99.90
12335;DHT22;6233;51.560;9.986;2022-10-17T10:52:00;22.40;99.90
12335;DHT22;6233;51.560;9.986;2022-10-17T10:55:25;22.50;99.90
12335;DHT22;6233;51.560;9.986;2022-10-17T11:16:18;22.80;99.90
12335;DHT22;6233;51.560;9.986;2022-10-17T11:19:24;22.80;99.90
12335;DHT22;6233;51.560;9.986;2022-10-17T11:22:52;22.60;99.90
12335;DHT22;6233;51.560;9.986;2022-10-17T11:25:59;22.80;99.90
12335;DHT22;6233;51.560;9.986;2022-10-17T11:29:04;22.70;99.90
12335;DHT22;6233;51.560;9.986;2022-10-17T11:32:17;22.50;99.90
12335;DHT22;6233;51.560;9.986;2022-10-17T11:35:37;22.40;99.90
12335;DHT22;6233;51.560;9.986;2022-10-17T11:38:56;22.30;99.90
12335;DHT22;6233;51.560;9.986;2022-10-17T11:42:06;22.20;99.90
12335;DHT22;6233;51.560;9.986;2022-10-17T11:45:14;22.20;99.90
12335;DHT22;6233;51.560;9.986;2022-10-17T11:48:36;22.10;99.90
12335;DHT22;6233;51.560;9.986;2022-10-17T11:51:58;22.00;99.90
12335;DHT22;6233;51.560;9.986;2022-10-17T11:55:18;22.00;99.90
12335;DHT22;6233;51.560;9.986;2022-10-17T11:58:28;21.90;99.90
12335;DHT22;6233;51.560;9.986;2022-10-17T12:01:40;21.90;99.90
12335;DHT22;6233;51.560;9.986;2022-10-17T12:05:02;21.90;99.90
12335;DHT22;6233;51.560;9.986;2022-10-17T12:11:48;21.80;99.90
12335;DHT22;6233;51.560;9.986;2022-10-17T12:18:23;21.80;99.90
12335;DHT22;6233;51.560;9.986;2022-10-17T12:21:26;21.80;99.90
12335;DHT22;6233;51.560;9.986;2022-10-17T12:24:42;21.80;99.90
12335;DHT22;6233;51.560;9.986;2022-10-17T12:27:45;21.80;99.90
12335;DHT22;6233;51.560;9.986;2022-10-17T12:30:50;21.90;99.90
12335;DHT22;6233;51.560;9.986;2022-10-17T12:36:54;22.10;99.90
12335;DHT22;6233;51.560;9.986;2022-10-17T12:39:55;22.00;99.90
12335;DHT22;6233;51.560;9.986;2022-10-17T12:42:57;22.00;99.90
12335;DHT22;6233;51.560;9.986;2022-10-17T12:46:03;22.00;99.90
12335;DHT22;6233;51.560;9.986;2022-10-17T12:52:58;21.90;99.90
12335;DHT22;6233;51.560;9.986;2022-10-17T12:56:05;21.90;99.90
12335;DHT22;6233;51.560;9.986;2022-10-17T12:59:23;21.90;99.90
12335;DHT22;6233;51.560;9.986;2022-10-17T13:02:26;22.00;99.90
12335;DHT22;6233;51.560;9.986;2022-10-17T13:05:31;22.00;99.90
12335;DHT22;6233;51.560;9.986;2022-10-17T13:08:43;22.00;99.90
12335;DHT22;6233;51.560;9.986;2022-10-17T13:11:47;22.00;99.90
12335;DHT22;6233;51.560;9.986;2022-10-17T13:14:51;22.00;99.90
12335;DHT22;6233;51.560;9.986;2022-10-17T13:17:55;22.10;99.90
12335;DHT22;6233;51.560;9.986;2022-10-17T13:21:11;22.10;99.90
12335;DHT22;6233;51.560;9.986;2022-10-17T13:24:28;22.10;99.90
12335;DHT22;6233;51.560;9.986;2022-10-17T13:27:32;22.10;99.90
12335;DHT22;6233;51.560;9.986;2022-10-17T13:30:35;22.10;99.90
12335;DHT22;6233;51.560;9.986;2022-10-17T13:33:39;22.10;99.90
12335;DHT22;6233;51.560;9.986;2022-10-17T13:36:47;22.00;99.90
12335;DHT22;6233;51.560;9.986;2022-10-17T13:39:49;22.00;99.90
12335;DHT22;6233;51.560;9.986;2022-10-17T13:43:25;22.00;99.90
12335;DHT22;6233;51.560;9.986;2022-10-17T13:46:30;22.00;99.90
12335;DHT22;6233;51.560;9.986;2022-10-17T13:49:40;22.00;99.90
12335;DHT22;6233;51.560;9.986;2022-10-17T13:52:42;22.00;99.90
12335;DHT22;6233;51.560;9.986;2022-10-17T13:59:23;22.00;99.90
12335;DHT22;6233;51.560;9.986;2022-10-17T14:02:30;22.00;99.90
12335;DHT22;6233;51.560;9.986;2022-10-17T14:05:32;21.90;99.90
12335;DHT22;6233;51.560;9.986;2022-10-17T14:08:35;21.90;99.90
12335;DHT22;6233;51.560;9.986;2022-10-17T14:11:42;21.90;99.90
12335;DHT22;6233;51.560;9.986;2022-10-17T14:14:50;21.90;99.90
12335;DHT22;6233;51.560;9.986;2022-10-17T14:18:34;21.90;99.90
12335;DHT22;6233;51.560;9.986;2022-10-17T14:21:37;21.80;99.90
12335;DHT22;6233;51.560;9.986;2022-10-17T14:24:45;21.80;99.90
12335;DHT22;6233;51.560;9.986;2022-10-17T14:28:07;21.80;99.90
12335;DHT22;6233;51.560;9.986;2022-10-17T14:34:23;21.80;99.90
12335;DHT22;6233;51.560;9.986;2022-10-17T14:40:33;21.70;99.90
12335;DHT22;6233;51.560;9.986;2022-10-17T14:43:35;21.70;99.90
12335;DHT22;6233;51.560;9.986;2022-10-17T14:46:42;21.80;99.90
12335;DHT22;6233;51.560;9.986;2022-10-17T14:50:01;21.60;99.90
12335;DHT22;6233;51.560;9.986;2022-10-17T14:53:18;21.60;99.90
12335;DHT22;6233;51.560;9.986;2022-10-17T14:56:24;21.60;99.90
12335;DHT22;6233;51.560;9.986;2022-10-17T14:59:26;21.60;99.90
12335;DHT22;6233;51.560;9.986;2022-10-17T15:02:50;21.60;99.90
12335;DHT22;6233;51.560;9.986;2022-10-17T15:05:53;21.60;99.90
12335;DHT22;6233;51.560;9.986;2022-10-17T15:08:56;21.70;99.90
12335;DHT22;6233;51.560;9.986;2022-10-17T15:12:01;21.60;99.90
12335;DHT22;6233;51.560;9.986;2022-10-17T15:15:04;21.50;99.90
12335;DHT22;6233;51.560;9.986;2022-10-17T15:18:12;21.40;99.90
12335;DHT22;6233;51.560;9.986;2022-10-17T15:21:18;21.40;99.90
12335;DHT22;6233;51.560;9.986;2022-10-17T15:24:34;21.40;99.90
12335;DHT22;6233;51.560;9.986;2022-10-17T15:27:35;21.40;99.90
12335;DHT22;6233;51.560;9.986;2022-10-17T15:31:02;21.30;99.90
12335;DHT22;6233;51.560;9.986;2022-10-17T15:34:05;21.30;99.90
12335;DHT22;6233;51.560;9.986;2022-10-17T15:37:19;21.20;99.90
12335;DHT22;6233;51.560;9.986;2022-10-17T15:40:25;21.20;99.90
12335;DHT22;6233;51.560;9.986;2022-10-17T15:43:28;21.20;99.90
12335;DHT22;6233;51.560;9.986;2022-10-17T15:46:32;21.10;99.90
12335;DHT22;6233;51.560;9.986;2022-10-17T15:49:35;21.20;99.90
12335;DHT22;6233;51.560;9.986;2022-10-17T15:52:36;21.10;99.90
12335;DHT22;6233;51.560;9.986;2022-10-17T15:55:38;21.00;99.90
12335;DHT22;6233;51.560;9.986;2022-10-17T15:58:40;21.00;99.90
12335;DHT22;6233;51.560;9.986;2022-10-17T16:01:42;20.90;99.90
12335;DHT22;6233;51.560;9.986;2022-10-17T16:04:44;20.90;99.90
12335;DHT22;6233;51.560;9.986;2022-10-17T16:07:46;20.90;99.90
12335;DHT22;6233;51.560;9.986;2022-10-17T16:10:49;20.80;99.90
12335;DHT22;6233;51.560;9.986;2022-10-17T16:14:12;20.70;99.90
12335;DHT22;6233;51.560;9.986;2022-10-17T16:17:15;20.70;99.90
12335;DHT22;6233;51.560;9.986;2022-10-17T16:20:17;20.70;99.90
12335;DHT22;6233;51.560;9.986;2022-10-17T16:23:20;20.60;99.90
12335;DHT22;6233;51.560;9.986;2022-10-17T16:26:21;20.60;99.90
12335;DHT22;6233;51.560;9.986;2022-10-17T16:29:23;20.60;99.90
12335;DHT22;6233;51.560;9.986;2022-10-17T16:32:24;20.60;99.90
12335;DHT22;6233;51.560;9.986;2022-10-17T16:35:28;20.50;99.90
12335;DHT22;6233;51.560;9.986;2022-10-17T16:38:37;20.50;99.90
12335;DHT22;6233;51.560;9.986;2022-10-17T16:41:41;20.50;99.90
12335;DHT22;6233;51.560;9.986;2022-10-17T16:44:43;20.60;99.90
12335;DHT22;6233;51.560;9.986;2022-10-17T16:47:45;20.50;99.90
12335;DHT22;6233;51.560;9.986;2022-10-17T16:50:47;20.50;99.90
12335;DHT22;6233;51.560;9.986;2022-10-17T16:53:50;20.30;99.90
12335;DHT22;6233;51.560;9.986;2022-10-17T16:56:53;20.30;99.90
12335;DHT22;6233;51.560;9.986;2022-10-17T16:59:54;20.30;99.90
12335;DHT22;6233;51.560;9.986;2022-10-17T17:02:56;20.20;99.90
12335;DHT22;6233;51.560;9.986;2022-10-17T17:05:58;20.20;99.90
12335;DHT22;6233;51.560;9.986;2022-10-17T17:08:59;20.00;99.90
12335;DHT22;6233;51.560;9.986;2022-10-17T17:12:01;20.00;99.90
12335;DHT22;6233;51.560;9.986;2022-10-17T17:15:05;20.00;99.90
12335;DHT22;6233;51.560;9.986;2022-10-17T17:18:06;19.90;99.90
12335;DHT22;6233;51.560;9.986;2022-10-17T17:21:09;19.90;99.90
12335;DHT22;6233;51.560;9.986;2022-10-17T17:24:11;19.90;99.90
12335;DHT22;6233;51.560;9.986;2022-10-17T17:27:12;19.90;99.90
12335;DHT22;6233;51.560;9.986;2022-10-17T17:30:14;19.80;99.90
12335;DHT22;6233;51.560;9.986;2022-10-17T17:33:16;20.00;99.90
12335;DHT22;6233;51.560;9.986;2022-10-17T17:36:21;19.80;99.90
12335;DHT22;6233;51.560;9.986;2022-10-17T17:39:23;19.90;99.90
12335;DHT22;6233;51.560;9.986;2022-10-17T17:42:25;19.80;99.90
12335;DHT22;6233;51.560;9.986;2022-10-17T17:45:27;19.80;99.90
12335;DHT22;6233;51.560;9.986;2022-10-17T17:48:28;19.70;99.90
12335;DHT22;6233;51.560;9.986;2022-10-17T17:51:30;19.70;99.90
12335;DHT22;6233;51.560;9.986;2022-10-17T17:54:35;19.70;99.90
12335;DHT22;6233;51.560;9.986;2022-10-17T17:57:41;19.70;99.90
12335;DHT22;6233;51.560;9.986;2022-10-17T18:00:43;19.70;99.90
12335;DHT22;6233;51.560;9.986;2022-10-17T18:03:45;19.60;99.90
12335;DHT22;6233;51.560;9.986;2022-10-17T18:06:47;19.90;99.90
12335;DHT22;6233;51.560;9.986;2022-10-17T18:09:49;19.60;99.90
12335;DHT22;6233;51.560;9.986;2022-10-17T18:12:51;19.60;99.90
12335;DHT22;6233;51.560;9.986;2022-10-17T18:15:58;19.50;99.90
12335;DHT22;6233;51.560;9.986;2022-10-17T18:19:05;19.50;99.90
12335;DHT22;6233;51.560;9.986;2022-10-17T18:22:07;19.60;99.90
12335;DHT22;6233;51.560;9.986;2022-10-17T18:25:09;19.40;99.90
12335;DHT22;6233;51.560;9.986;2022-10-17T18:28:11;19.40;99.90
12335;DHT22;6233;51.560;9.986;2022-10-17T18:31:18;19.40;99.90
12335;DHT22;6233;51.560;9.986;2022-10-17T18:34:24;19.40;99.90
12335;DHT22;6233;51.560;9.986;2022-10-17T18:37:27;19.40;99.90
12335;DHT22;6233;51.560;9.986;2022-10-17T18:40:29;19.60;99.90
12335;DHT22;6233;51.560;9.986;2022-10-17T18:43:35;19.40;99.90
12335;DHT22;6233;51.560;9.986;2022-10-17T18:46:41;19.40;99.90
12335;DHT22;6233;51.560;9.986;2022-10-17T18:49:43;19.30;99.90
12335;DHT22;6233;51.560;9.986;2022-10-17T18:52:49;19.20;99.90
12335;DHT22;6233;51.560;9.986;2022-10-17T18:55:51;19.20;99.90
12335;DHT22;6233;51.560;9.986;2022-10-17T18:58:53;19.30;99.90
12335;DHT22;6233;51.560;9.986;2022-10-17T19:01:55;19.30;99.90
12335;DHT22;6233;51.560;9.986;2022-10-17T19:04:57;19.30;99.90
12335;DHT22;6233;51.560;9.986;2022-10-17T19:07:58;19.20;99.90
12335;DHT22;6233;51.560;9.986;2022-10-17T19:11:12;19.20;99.90
12335;DHT22;6233;51.560;9.986;2022-10-17T19:14:14;19.10;99.90
12335;DHT22;6233;51.560;9.986;2022-10-17T19:17:16;19.10;99.90
12335;DHT22;6233;51.560;9.986;2022-10-17T19:20:17;19.10;99.90
12335;DHT22;6233;51.560;9.986;2022-10-17T19:23:19;19.00;99.90
12335;DHT22;6233;51.560;9.986;2022-10-17T19:26:21;19.10;99.90
12335;DHT22;6233;51.560;9.986;2022-10-17T19:29:25;19.30;99.90
12335;DHT22;6233;51.560;9.986;2022-10-17T19:32:27;19.00;99.90
12335;DHT22;6233;51.560;9.986;2022-10-17T19:35:29;18.90;99.90
12335;DHT22;6233;51.560;9.986;2022-10-17T19:38:31;19.00;99.90
12335;DHT22;6233;51.560;9.986;2022-10-17T19:41:33;19.20;99.90
12335;DHT22;6233;51.560;9.986;2022-10-17T19:44:36;19.10;99.90
12335;DHT22;6233;51.560;9.986;2022-10-17T19:47:38;19.00;99.90
12335;DHT22;6233;51.560;9.986;2022-10-17T19:50:43;18.90;99.90
12335;DHT22;6233;51.560;9.986;2022-10-17T19:53:45;18.80;99.90
12335;DHT22;6233;51.560;9.986;2022-10-17T19:56:54;18.90;99.90
12335;DHT22;6233;51.560;9.986;2022-10-17T19:59:55;19.00;99.90
12335;DHT22;6233;51.560;9.986;2022-10-17T20:02:57;18.70;99.90
12335;DHT22;6233;51.560;9.986;2022-10-17T20:05:59;18.80;99.90
12335;DHT22;6233;51.560;9.986;2022-10-17T20:09:02;18.80;99.90
12335;DHT22;6233;51.560;9.986;2022-10-17T20:12:10;18.80;99.90
12335;DHT22;6233;51.560;9.986;2022-10-17T20:15:12;18.80;99.90
12335;DHT22;6233;51.560;9.986;2022-10-17T20:18:13;18.90;99.90
12335;DHT22;6233;51.560;9.986;2022-10-17T20:21:18;18.70;99.90
12335;DHT22;6233;51.560;9.986;2022-10-17T20:24:23;18.80;99.90
12335;DHT22;6233;51.560;9.986;2022-10-17T20:27:24;18.70;99.90
12335;DHT22;6233;51.560;9.986;2022-10-17T20:30:28;18.60;99.90
12335;DHT22;6233;51.560;9.986;2022-10-17T20:33:30;18.60;99.90
12335;DHT22;6233;51.560;9.986;2022-10-17T20:36:32;18.50;99.90
12335;DHT22;6233;51.560;9.986;2022-10-17T20:39:37;18.50;99.90
12335;DHT22;6233;51.560;9.986;2022-10-17T20:42:39;18.60;99.90
12335;DHT22;6233;51.560;9.986;2022-10-17T20:45:43;18.70;99.90
12335;DHT22;6233;51.560;9.986;2022-10-17T20:48:53;18.80;99.90
12335;DHT22;6233;51.560;9.986;2022-10-17T20:51:56;18.50;99.90
12335;DHT22;6233;51.560;9.986;2022-10-17T20:54:57;18.50;99.90
12335;DHT22;6233;51.560;9.986;2022-10-17T20:57:59;18.50;99.90
12335;DHT22;6233;51.560;9.986;2022-10-17T21:01:08;18.30;99.90
12335;DHT22;6233;51.560;9.986;2022-10-17T21:04:10;18.30;99.90
12335;DHT22;6233;51.560;9.986;2022-10-17T21:07:40;18.20;99.90
12335;DHT22;6233;51.560;9.986;2022-10-17T21:10:44;18.30;99.90
12335;DHT22;6233;51.560;9.986;2022-10-17T21:13:47;18.20;99.90
12335;DHT22;6233;51.560;9.986;2022-10-17T21:16:53;18.40;99.90